createdAt,value
2019-05-06T03:01:47.639Z,14.45
2019-05-06T03:04:17.177Z,14.25
2019-05-06T03:06:46.435Z,12.03
2019-05-06T03:09:15.721Z,15.55
2019-05-06T03:12:04.387Z,11.18
2019-05-06T03:14:34.592Z,17.32
2019-05-06T03:17:04.178Z,9.48
2019-05-06T03:19:35.143Z,11.22
2019-05-06T03:22:18.210Z,15.58
2019-05-06T03:24:49.112Z,12.73
2019-05-06T03:27:18.427Z,12.53
2019-05-06T03:29:47.686Z,13.15
2019-05-06T03:32:24.686Z,19.15
2019-05-06T03:35:09.170Z,16.12
2019-05-06T03:37:20.217Z,17.67
2019-05-06T03:39:49.487Z,20.43
2019-05-06T03:42:18.763Z,15.20
2019-05-06T03:44:49.659Z,12.82
2019-05-06T03:47:23.276Z,14.28
2019-05-06T03:49:54.497Z,17.70
2019-05-06T03:52:23.618Z,13.00
2019-05-06T03:54:54.322Z,15.63
2019-05-06T03:57:25.148Z,16.70
2019-05-06T03:59:56.085Z,17.45
2019-05-06T04:02:25.522Z,13.30
2019-05-06T04:04:56.666Z,19.70
2019-05-06T04:07:26.533Z,19.32
2019-05-06T04:09:55.811Z,16.07
2019-05-06T04:12:27.498Z,14.10
2019-05-06T04:14:57.028Z,14.10
2019-05-06T04:17:32.922Z,18.17
2019-05-06T04:25:43.175Z,17.52
2019-05-06T04:28:15.669Z,14.25
2019-05-06T04:30:45.080Z,19.73
2019-05-06T04:33:17.410Z,14.93
2019-05-06T04:35:46.509Z,13.35
2019-05-06T04:38:15.767Z,15.35
2019-05-06T04:40:45.153Z,19.75
2019-05-06T04:43:15.140Z,19.80
2019-05-06T04:45:45.540Z,19.30
2019-05-06T04:48:14.879Z,16.57
2019-05-06T04:50:44.676Z,18.57
2019-05-06T04:53:14.136Z,18.80
2019-05-06T04:55:44.013Z,22.15
2019-05-06T04:58:13.982Z,18.35
2019-05-06T05:00:44.454Z,18.82
2019-05-06T05:03:14.571Z,18.30
2019-05-06T05:05:44.901Z,20.95
2019-05-06T05:08:15.827Z,15.75
2019-05-06T05:10:49.452Z,16.65
2019-05-06T05:13:29.493Z,19.55
2019-05-06T05:16:03.384Z,18.12
2019-05-06T05:18:36.975Z,18.55
2019-05-06T05:21:06.322Z,16.75
2019-05-06T05:23:35.583Z,15.00
2019-05-06T05:26:04.838Z,16.73
2019-05-06T05:28:34.116Z,16.55
2019-05-06T05:31:03.382Z,23.85
2019-05-06T05:33:32.878Z,18.90
2019-05-06T05:36:02.938Z,18.00
2019-05-06T05:38:32.651Z,18.80
2019-05-06T05:41:03.023Z,15.03
2019-05-06T05:43:34.155Z,15.70
2019-05-06T05:46:03.567Z,14.95
2019-05-06T05:48:37.186Z,21.23
2019-05-06T05:51:06.734Z,16.07
2019-05-06T05:53:36.077Z,14.90
2019-05-06T05:56:05.508Z,19.73
2019-05-06T05:58:34.776Z,18.20
2019-05-06T06:01:04.394Z,16.20
2019-05-06T06:03:34.695Z,16.25
2019-05-06T06:06:03.985Z,13.75
2019-05-06T06:08:33.223Z,18.52
2019-05-06T06:11:04.393Z,14.07
2019-05-06T06:13:33.931Z,14.85
2019-05-06T06:16:08.351Z,18.85
2019-05-06T06:18:43.358Z,17.35
2019-05-06T06:21:25.654Z,20.30
2019-05-06T06:23:53.464Z,16.42
2019-05-06T06:26:22.766Z,15.68
2019-05-06T06:28:52.501Z,16.62
2019-05-06T06:31:26.278Z,17.25
2019-05-06T06:33:58.698Z,14.60
2019-05-06T06:36:35.999Z,17.70
2019-05-06T06:39:12.502Z,15.13
2019-05-06T06:41:42.348Z,12.85
2019-05-06T06:44:13.481Z,15.53
2019-05-06T06:46:43.315Z,12.80
2019-05-06T06:49:12.756Z,16.25
2019-05-06T06:51:42.599Z,12.65
2019-05-06T06:54:12.429Z,12.80
2019-05-06T06:56:46.135Z,12.33
2019-05-06T06:59:24.995Z,14.38
2019-05-06T07:01:56.459Z,16.10
2019-05-06T07:04:28.940Z,13.18
2019-05-06T07:07:02.752Z,16.50
2019-05-06T07:09:32.344Z,14.70
2019-05-06T07:12:03.443Z,15.13
2019-05-06T07:14:36.186Z,13.30
2019-05-06T07:17:04.898Z,12.13
2019-05-06T07:19:35.970Z,13.43
2019-05-06T07:22:07.019Z,13.75
2019-05-06T07:24:36.915Z,14.28
2019-05-06T07:27:07.823Z,17.20
2019-05-06T07:29:37.086Z,16.25
2019-05-06T07:32:06.346Z,14.93
2019-05-06T07:34:35.615Z,11.70
2019-05-06T07:37:05.164Z,10.82
2019-05-06T07:39:34.671Z,13.22
2019-05-06T07:42:05.742Z,9.83
2019-05-06T07:44:52.921Z,10.80
2019-05-06T07:47:26.915Z,11.70
2019-05-06T07:49:57.266Z,13.08
2019-05-06T07:52:26.527Z,9.70
2019-05-06T07:54:56.767Z,11.90
2019-05-06T07:57:26.043Z,11.22
2019-05-06T07:59:55.312Z,10.30
2019-05-06T08:02:24.582Z,6.92
2019-05-06T08:04:53.851Z,7.37
2019-05-06T08:07:23.114Z,10.32
2019-05-06T08:09:53.129Z,9.20
2019-05-06T08:12:23.434Z,7.35
2019-05-06T08:14:52.698Z,7.28
2019-05-06T08:17:23.680Z,9.73
2019-05-06T08:19:53.083Z,10.43
2019-05-06T08:22:42.286Z,6.25
2019-05-06T08:25:12.282Z,8.05
2019-05-06T08:27:42.536Z,7.80
2019-05-06T08:30:13.030Z,11.33
2019-05-06T08:32:43.542Z,9.58
2019-05-06T08:35:14.927Z,10.23
2019-05-06T08:37:45.159Z,7.20
2019-05-06T08:40:15.162Z,9.78
2019-05-06T08:42:44.435Z,8.18
2019-05-06T08:45:14.143Z,9.68
2019-05-06T08:47:43.432Z,11.55
2019-05-06T08:50:21.813Z,11.25
2019-05-06T08:53:05.285Z,12.58
2019-05-06T08:55:37.330Z,14.33
2019-05-06T08:58:07.091Z,7.00
2019-05-06T09:00:38.538Z,8.55
2019-05-06T09:03:07.874Z,7.05
2019-05-06T09:05:37.138Z,10.18
2019-05-06T09:08:06.478Z,7.90
2019-05-06T09:10:35.750Z,6.92
2019-05-06T09:13:05.021Z,10.10
2019-05-06T09:15:34.559Z,11.15
2019-05-06T09:18:03.825Z,9.80
2019-05-06T09:20:33.090Z,8.83
2019-05-06T09:23:04.503Z,6.53
2019-05-06T09:25:33.314Z,9.48
2019-05-06T09:28:04.233Z,5.65
2019-05-06T09:30:52.538Z,8.15
2019-05-06T09:33:23.647Z,8.43
2019-05-06T09:35:52.955Z,7.75
2019-05-06T09:38:22.811Z,6.60
2019-05-06T09:40:52.623Z,5.00
2019-05-06T09:43:22.326Z,10.82
2019-05-06T09:45:52.984Z,6.60
2019-05-06T09:48:42.522Z,7.83
2019-05-06T09:51:13.118Z,8.20
2019-05-06T09:54:03.886Z,9.00
2019-05-06T09:56:36.258Z,5.92
2019-05-06T09:59:05.535Z,7.95
2019-05-06T10:01:35.108Z,9.30
2019-05-06T10:04:07.974Z,9.23
2019-05-06T10:06:37.810Z,7.25
2019-05-06T10:09:15.769Z,8.43
2019-05-06T10:11:42.820Z,6.00
2019-05-06T10:14:12.865Z,9.33
2019-05-06T10:16:42.990Z,5.85
2019-05-06T10:19:14.044Z,9.73
2019-05-06T10:21:43.482Z,8.78
2019-05-06T10:24:12.814Z,9.85
2019-05-06T10:26:43.993Z,6.45
2019-05-06T10:29:23.647Z,7.62
2019-05-06T10:31:57.346Z,7.92
2019-05-06T10:34:26.847Z,5.75
2019-05-06T10:37:14.639Z,8.18
2019-05-06T10:39:41.071Z,6.05
2019-05-06T10:42:13.628Z,7.40
2019-05-06T10:44:54.598Z,7.33
2019-05-06T10:47:23.866Z,8.33
2019-05-06T10:49:53.125Z,7.78
2019-05-06T10:52:29.851Z,7.92
2019-05-06T10:54:59.368Z,5.85
2019-05-06T11:00:12.381Z,7.05
2019-05-06T11:02:46.167Z,7.67
2019-05-06T11:05:15.627Z,6.20
2019-05-06T11:07:44.899Z,7.03
2019-05-06T11:10:24.011Z,6.92
2019-05-06T11:12:45.383Z,9.35
2019-05-06T11:15:14.655Z,6.87
2019-05-06T11:17:43.927Z,7.35
2019-05-06T11:20:14.154Z,8.83
2019-05-06T11:22:43.803Z,6.90
2019-05-06T11:25:14.548Z,5.85
2019-05-06T11:27:45.248Z,8.95
2019-05-06T11:30:33.507Z,8.18
2019-05-06T11:33:22.373Z,6.42
2019-05-06T11:38:44.279Z,4.97
2019-05-06T11:41:13.531Z,6.05
2019-05-06T11:43:42.960Z,4.58
2019-05-06T11:46:12.559Z,4.67
2019-05-06T11:48:43.132Z,5.00
2019-05-06T11:51:14.248Z,4.25
2019-05-06T11:53:43.921Z,4.00
2019-05-06T11:56:13.355Z,4.40
2019-05-06T11:58:44.276Z,5.62
2019-05-06T12:01:20.871Z,5.00
2019-05-06T12:03:52.053Z,4.15
2019-05-06T12:06:22.729Z,4.97
2019-05-06T12:08:52.581Z,6.65
2019-05-06T12:11:23.664Z,5.67
2019-05-06T12:13:53.445Z,6.05
2019-05-06T12:16:26.170Z,7.53
2019-05-06T12:18:53.851Z,5.25
2019-05-06T12:21:23.395Z,7.17
2019-05-06T12:23:53.748Z,4.97
2019-05-06T12:26:23.308Z,5.65
2019-05-06T12:28:53.342Z,7.03
2019-05-06T12:31:23.491Z,6.25
2019-05-06T12:33:53.472Z,4.75
2019-05-06T12:36:23.391Z,5.17
2019-05-06T12:39:15.760Z,4.50
2019-05-06T12:41:56.192Z,7.00
2019-05-06T12:44:25.467Z,6.35
2019-05-06T12:46:59.644Z,4.97
2019-05-06T12:49:27.539Z,8.10
2019-05-06T12:51:56.823Z,5.80
2019-05-06T12:54:27.192Z,5.45
2019-05-06T12:56:57.723Z,4.00
2019-05-06T12:59:27.068Z,6.08
2019-05-06T13:01:56.400Z,5.62
2019-05-06T13:04:46.237Z,6.40
2019-05-06T13:06:56.644Z,4.65
2019-05-06T13:09:27.033Z,5.35
2019-05-06T13:11:56.400Z,6.35
2019-05-06T13:14:25.739Z,4.28
2019-05-06T13:16:55.007Z,6.40
2019-05-06T13:19:24.275Z,6.00
2019-05-06T13:21:53.623Z,4.62
2019-05-06T13:24:23.864Z,4.03
2019-05-06T13:26:53.158Z,3.35
2019-05-06T13:29:24.207Z,5.00
2019-05-06T13:31:53.478Z,4.45
2019-05-06T13:34:23.378Z,4.85
2019-05-06T13:36:53.545Z,6.53
2019-05-06T13:39:23.856Z,7.72
2019-05-06T13:41:53.342Z,7.00
2019-05-06T13:44:23.050Z,5.95
2019-05-06T13:46:53.672Z,5.12
2019-05-06T13:49:24.703Z,6.10
2019-05-06T13:51:55.622Z,5.92
2019-05-06T13:54:24.899Z,5.65
2019-05-06T13:57:13.490Z,5.42
2019-05-06T13:59:44.017Z,7.55
2019-05-06T14:02:16.307Z,6.15
2019-05-06T14:04:45.883Z,3.62
2019-05-06T14:07:15.429Z,7.47
2019-05-06T14:09:44.757Z,5.35
2019-05-06T14:12:14.018Z,6.05
2019-05-06T14:14:43.437Z,5.25
2019-05-06T14:17:12.970Z,6.65
2019-05-06T14:19:43.115Z,4.17
2019-05-06T14:22:13.483Z,5.25
2019-05-06T14:24:44.390Z,6.25
2019-05-06T14:27:15.295Z,5.75
2019-05-06T14:29:46.207Z,5.75
2019-05-06T14:32:15.463Z,5.80
2019-05-06T14:34:44.739Z,5.45
2019-05-06T14:37:14.319Z,6.60
2019-05-06T14:39:53.721Z,5.00
2019-05-06T14:42:16.499Z,5.42
2019-05-06T14:44:45.942Z,4.75
2019-05-06T14:47:25.959Z,5.50
2019-05-06T14:49:55.222Z,6.37
2019-05-06T14:52:24.491Z,5.58
2019-05-06T14:54:55.409Z,5.40
2019-05-06T14:57:25.571Z,5.83
2019-05-06T14:59:55.812Z,6.72
2019-05-06T15:02:27.189Z,4.95
2019-05-06T15:04:57.703Z,5.50
2019-05-06T15:07:26.975Z,7.95
2019-05-06T15:10:15.005Z,7.97
2019-05-06T15:12:27.210Z,6.03
2019-05-06T15:14:56.776Z,6.55
2019-05-06T15:17:26.035Z,6.58
2019-05-06T15:19:55.578Z,7.53
2019-05-06T15:22:24.847Z,5.30
2019-05-06T15:24:54.110Z,6.10
2019-05-06T15:27:23.379Z,5.80
2019-05-06T15:29:55.365Z,5.40
2019-05-06T15:32:26.255Z,6.60
2019-05-06T15:35:13.370Z,6.30
2019-05-06T15:37:44.277Z,7.90
2019-05-06T15:40:14.187Z,7.83
2019-05-06T15:42:43.454Z,5.05
2019-05-06T15:45:13.063Z,3.45
2019-05-06T15:47:42.760Z,5.30
2019-05-06T15:50:12.980Z,6.50
2019-05-06T15:52:43.674Z,6.37
2019-05-06T15:55:25.464Z,5.10
2019-05-06T15:57:55.330Z,6.33
2019-05-06T16:00:24.670Z,5.95
2019-05-06T16:02:53.943Z,6.22
2019-05-06T16:05:26.408Z,5.97
2019-05-06T16:07:54.194Z,6.05
2019-05-06T16:10:25.830Z,7.42
2019-05-06T16:12:55.103Z,6.58
2019-05-06T16:15:24.960Z,7.05
2019-05-06T16:17:54.411Z,8.45
2019-05-06T16:20:23.675Z,7.20
2019-05-06T16:22:54.920Z,7.00
2019-05-06T16:25:25.150Z,7.03
2019-05-06T16:27:56.058Z,7.00
2019-05-06T16:30:25.394Z,8.50
2019-05-06T16:32:54.657Z,6.95
2019-05-06T16:35:25.020Z,6.17
2019-05-06T16:37:54.286Z,8.75
2019-05-06T16:40:23.727Z,6.00
2019-05-06T16:42:54.411Z,8.78
2019-05-06T16:45:24.058Z,7.62
2019-05-06T16:47:53.771Z,8.53
2019-05-06T16:50:29.367Z,8.80
2019-05-06T16:52:57.082Z,7.95
2019-05-06T16:55:36.979Z,8.95
2019-05-06T16:58:13.971Z,7.62
2019-05-06T17:00:43.243Z,8.60
2019-05-06T17:03:17.335Z,7.17
2019-05-06T17:06:05.792Z,7.30
2019-05-06T17:08:36.501Z,8.78
2019-05-06T17:11:06.115Z,8.55
2019-05-06T17:13:37.636Z,8.73
2019-05-06T17:16:06.519Z,8.85
2019-05-06T17:18:35.786Z,9.23
2019-05-06T17:21:05.545Z,8.58
2019-05-06T17:23:34.815Z,7.12
2019-05-06T17:26:04.647Z,7.80
2019-05-06T17:28:38.218Z,7.28
2019-05-06T17:31:18.279Z,6.40
2019-05-06T17:33:51.390Z,7.80
2019-05-06T17:36:22.098Z,7.53
2019-05-06T17:38:52.849Z,7.53
2019-05-06T17:41:26.126Z,7.50
2019-05-06T17:43:53.403Z,9.40
2019-05-06T17:46:24.308Z,9.35
2019-05-06T17:49:06.937Z,7.35
2019-05-06T17:51:37.838Z,9.30
2019-05-06T17:54:07.434Z,8.23
2019-05-06T17:56:36.801Z,8.73
2019-05-06T17:59:06.130Z,8.63
2019-05-06T18:01:42.487Z,9.28
2019-05-06T18:04:12.716Z,8.60
2019-05-06T18:06:42.655Z,8.35
2019-05-06T18:09:12.693Z,9.70
2019-05-06T18:11:57.143Z,9.60
2019-05-06T18:14:14.778Z,8.38
2019-05-06T18:16:44.058Z,10.65
2019-05-06T18:19:13.327Z,8.60
2019-05-06T18:21:42.605Z,9.30
2019-05-06T18:24:12.883Z,9.08
2019-05-06T18:26:42.440Z,9.15
2019-05-06T18:29:12.584Z,10.80
2019-05-06T18:31:42.716Z,9.23
2019-05-06T18:34:12.845Z,10.00
2019-05-06T18:36:43.018Z,8.73
2019-05-06T18:39:12.931Z,10.50
2019-05-06T18:41:42.274Z,10.88
2019-05-06T18:44:11.988Z,10.48
2019-05-06T18:46:42.133Z,10.05
2019-05-06T18:49:13.185Z,9.98
2019-05-06T18:51:42.788Z,9.20
2019-05-06T18:54:12.477Z,10.30
2019-05-06T18:56:42.983Z,9.40
2019-05-06T18:59:12.494Z,8.30
2019-05-06T19:01:43.350Z,8.53
2019-05-06T19:04:14.539Z,9.33
2019-05-06T19:06:43.800Z,9.95
2019-05-06T19:09:17.720Z,9.73
2019-05-06T19:11:47.060Z,10.82
2019-05-06T19:14:16.328Z,9.83
2019-05-06T19:16:51.734Z,9.95
2019-05-06T19:19:16.640Z,10.60
2019-05-06T19:21:45.951Z,13.03
2019-05-06T19:24:15.255Z,8.03
2019-05-06T19:26:44.815Z,10.63
2019-05-06T19:29:14.435Z,10.30
2019-05-06T19:31:45.057Z,8.38
2019-05-06T19:34:14.383Z,7.28
2019-05-06T19:36:43.698Z,6.83
2019-05-06T19:39:12.960Z,6.33
2019-05-06T19:41:42.467Z,6.85
2019-05-06T19:44:12.833Z,9.93
2019-05-06T19:46:42.717Z,9.98
2019-05-06T19:49:11.979Z,9.45
2019-05-06T19:51:42.863Z,10.25
2019-05-06T19:54:12.735Z,17.73
2019-05-06T19:56:43.046Z,17.92
2019-05-06T19:59:12.932Z,29.50
2019-05-06T20:01:42.931Z,36.48
2019-05-06T20:04:13.164Z,25.50
2019-05-06T20:06:52.285Z,24.32
2019-05-06T20:09:35.111Z,11.45
2019-05-06T20:12:15.007Z,14.47
2019-05-06T20:14:44.576Z,11.20
2019-05-06T20:17:13.842Z,12.60
2019-05-06T20:19:43.114Z,9.83
2019-05-06T20:22:13.090Z,8.98
2019-05-06T20:24:42.703Z,10.30
2019-05-06T20:27:13.300Z,8.05
2019-05-06T20:29:42.906Z,8.70
2019-05-06T20:32:13.379Z,12.05
2019-05-06T20:34:42.971Z,13.70
2019-05-06T20:37:12.878Z,12.50
2019-05-06T20:39:43.231Z,10.15
2019-05-06T20:42:12.935Z,9.30
2019-05-06T20:44:43.539Z,10.23
2019-05-06T20:47:13.225Z,9.10
2019-05-06T20:49:43.591Z,9.48
2019-05-06T20:52:12.854Z,7.67
2019-05-06T20:54:42.775Z,11.18
2019-05-06T20:57:12.482Z,11.20
2019-05-06T20:59:43.247Z,12.23
2019-05-06T21:02:12.616Z,11.85
2019-05-06T21:04:43.271Z,13.03
2019-05-06T21:07:12.692Z,9.63
2019-05-06T21:09:43.243Z,9.10
2019-05-06T21:12:12.683Z,11.15
2019-05-06T21:14:42.234Z,9.25
2019-05-06T21:17:12.325Z,11.43
2019-05-06T21:19:42.902Z,9.43
2019-05-06T21:22:13.307Z,11.83
2019-05-06T21:24:43.237Z,10.25
2019-05-06T21:27:13.523Z,11.25
2019-05-06T21:29:42.794Z,11.93
2019-05-06T21:32:12.058Z,9.88
2019-05-06T21:34:43.240Z,10.50
2019-05-06T21:37:12.608Z,11.10
2019-05-06T21:39:42.415Z,13.32
2019-05-06T21:42:13.455Z,14.15
2019-05-06T21:44:42.964Z,12.18
2019-05-06T21:47:12.342Z,10.88
2019-05-06T21:49:42.570Z,9.85
2019-05-06T21:52:13.106Z,12.28
2019-05-06T21:54:43.375Z,11.97
2019-05-06T21:57:12.882Z,12.37
2019-05-06T21:59:42.827Z,13.80
2019-05-06T22:02:14.834Z,12.53
2019-05-06T22:04:45.171Z,14.03
2019-05-06T22:07:14.443Z,14.18
2019-05-06T22:09:43.974Z,14.05
2019-05-06T22:12:13.226Z,15.13
2019-05-06T22:14:42.503Z,13.50
2019-05-06T22:17:14.097Z,11.97
2019-05-06T22:19:43.595Z,14.60
2019-05-06T22:22:14.843Z,11.93
2019-05-06T22:24:45.003Z,13.40
2019-05-06T22:27:14.906Z,12.90
2019-05-06T22:29:44.181Z,13.00
2019-05-06T22:32:14.888Z,12.05
2019-05-06T22:34:44.431Z,12.07
2019-05-06T22:37:13.694Z,13.98
2019-05-06T22:39:43.600Z,11.43
2019-05-06T22:42:13.200Z,14.47
2019-05-06T22:44:43.080Z,12.90
2019-05-06T22:47:13.431Z,12.28
2019-05-06T22:49:44.060Z,10.93
2019-05-06T22:52:13.341Z,14.23
2019-05-06T22:54:43.338Z,13.58
2019-05-06T22:57:13.928Z,13.00
2019-05-06T22:59:43.190Z,14.15
2019-05-06T23:02:17.056Z,11.78
2019-05-06T23:04:47.955Z,13.80
2019-05-06T23:07:17.467Z,13.35
2019-05-06T23:09:46.974Z,13.62
2019-05-06T23:12:16.239Z,13.62
2019-05-06T23:14:45.507Z,14.87
2019-05-06T23:17:14.778Z,12.65
2019-05-06T23:19:44.060Z,16.05
2019-05-06T23:22:13.306Z,11.93
2019-05-06T23:24:42.580Z,12.40
2019-05-06T23:27:12.624Z,13.53
2019-05-06T23:29:42.554Z,12.45
2019-05-06T23:32:13.983Z,12.78
2019-05-06T23:34:43.482Z,14.50
2019-05-06T23:37:16.155Z,15.68
2019-05-06T23:40:22.627Z,15.18
2019-05-06T23:43:28.735Z,16.17
2019-05-06T23:46:34.430Z,13.98
2019-05-06T23:49:42.228Z,15.50
2019-05-06T23:52:48.262Z,10.93
2019-05-06T23:55:53.882Z,13.28
2019-05-06T23:58:22.489Z,11.63
